createdAt,value
2023-05-15T00:02:29.464Z,13.32
2023-05-15T00:04:59.915Z,13.29
2023-05-15T00:07:30.355Z,13.28
2023-05-15T00:10:01.003Z,13.25
2023-05-15T00:12:31.333Z,13.20
2023-05-15T00:15:01.687Z,13.16
2023-05-15T00:17:32.087Z,13.13
2023-05-15T00:20:02.679Z,13.09
2023-05-15T00:22:33.116Z,13.05
2023-05-15T00:25:03.559Z,13.01
2023-05-15T00:27:34.008Z,13.00
2023-05-15T00:30:09.127Z,12.99
2023-05-15T00:32:39.469Z,12.98
2023-05-15T00:35:10.450Z,12.97
2023-05-15T00:37:40.854Z,12.93
2023-05-15T00:40:16.056Z,12.91
2023-05-15T00:42:47.510Z,12.87
2023-05-15T00:45:18.678Z,12.83
2023-05-15T00:47:52.191Z,12.78
2023-05-15T00:50:23.396Z,12.73
2023-05-15T00:52:54.222Z,12.70
2023-05-15T00:55:26.654Z,12.65
2023-05-15T00:57:59.314Z,12.61
2023-05-15T01:00:32.325Z,12.59
2023-05-15T01:03:03.278Z,12.54
2023-05-15T01:05:33.714Z,12.51
2023-05-15T01:08:23.830Z,12.48
2023-05-15T01:10:55.333Z,12.46
2023-05-15T01:13:25.832Z,12.44
2023-05-15T01:15:57.393Z,12.43
2023-05-15T01:18:32.269Z,12.42
2023-05-15T01:21:27.038Z,12.40
2023-05-15T01:24:12.452Z,12.39
2023-05-15T01:27:24.889Z,12.37
2023-05-15T01:30:05.356Z,12.36
2023-05-15T01:32:48.394Z,12.34
2023-05-15T01:35:23.136Z,12.31
2023-05-15T01:38:07.045Z,12.31
2023-05-15T01:40:37.660Z,12.27
2023-05-15T01:43:13.021Z,12.27
2023-05-15T01:45:46.192Z,12.24
2023-05-15T01:48:21.057Z,12.20
2023-05-15T01:50:52.697Z,12.19
2023-05-15T01:53:24.023Z,12.18
2023-05-15T01:55:56.149Z,12.17
2023-05-15T01:58:28.691Z,12.16
2023-05-15T02:00:59.602Z,12.15
2023-05-15T02:03:33.483Z,12.14
2023-05-15T02:06:05.950Z,12.12
2023-05-15T02:08:37.944Z,12.10
2023-05-15T02:11:09.738Z,12.08
2023-05-15T02:13:41.866Z,12.09
2023-05-15T02:16:12.564Z,12.08
2023-05-15T02:18:44.210Z,12.06
2023-05-15T02:21:14.964Z,12.06
2023-05-15T02:23:46.462Z,12.06
2023-05-15T02:26:31.897Z,12.05
2023-05-15T02:29:14.821Z,12.03
2023-05-15T02:31:51.953Z,12.01
2023-05-15T02:34:33.321Z,12.00
2023-05-15T02:37:05.701Z,11.99
2023-05-15T02:39:38.462Z,11.97
2023-05-15T02:42:11.308Z,11.94
2023-05-15T02:44:44.485Z,11.94
2023-05-15T02:47:15.860Z,11.94
2023-05-15T02:49:47.509Z,11.95
2023-05-15T02:52:18.017Z,11.95
2023-05-15T02:54:48.338Z,11.95
2023-05-15T02:57:18.745Z,11.95
2023-05-15T02:59:49.182Z,11.94
2023-05-15T03:02:19.500Z,11.94
2023-05-15T03:04:49.962Z,11.93
2023-05-15T03:07:20.331Z,11.92
2023-05-15T03:09:50.712Z,11.90
2023-05-15T03:12:21.102Z,11.89
2023-05-15T03:14:51.423Z,11.87
2023-05-15T03:17:22.449Z,11.86
2023-05-15T03:19:52.880Z,11.86
2023-05-15T03:22:23.307Z,11.86
2023-05-15T03:24:54.203Z,11.87
2023-05-15T03:27:24.572Z,11.86
2023-05-15T03:29:54.911Z,11.83
2023-05-15T03:32:25.305Z,11.81
2023-05-15T03:34:56.663Z,11.79
2023-05-15T03:37:27.059Z,11.78
2023-05-15T03:39:57.480Z,11.77
2023-05-15T03:42:28.095Z,11.77
2023-05-15T03:44:58.430Z,11.75
2023-05-15T03:47:28.977Z,11.76
2023-05-15T03:49:59.375Z,11.77
2023-05-15T03:52:29.880Z,11.77
2023-05-15T03:55:00.282Z,11.77
2023-05-15T03:57:30.805Z,11.76
2023-05-15T04:00:04.014Z,11.75
2023-05-15T04:02:42.772Z,11.75
2023-05-15T04:05:13.480Z,11.74
2023-05-15T04:07:44.122Z,11.74
2023-05-15T04:10:14.587Z,11.75
2023-05-15T04:12:44.968Z,11.77
2023-05-15T04:15:21.567Z,11.78
2023-05-15T04:17:53.550Z,11.79
2023-05-15T04:20:25.939Z,11.79
2023-05-15T04:22:56.309Z,11.80
2023-05-15T04:25:27.278Z,11.81
2023-05-15T04:27:57.849Z,11.81
2023-05-15T04:30:28.258Z,11.83
2023-05-15T04:32:58.624Z,11.83
2023-05-15T04:35:29.119Z,11.83
2023-05-15T04:37:59.497Z,11.82
2023-05-15T04:40:29.860Z,11.82
2023-05-15T04:43:00.797Z,11.82
2023-05-15T04:45:31.143Z,11.82
2023-05-15T04:48:01.669Z,11.85
2023-05-15T04:50:32.082Z,11.86
2023-05-15T04:53:02.503Z,11.86
2023-05-15T04:55:33.672Z,11.87
2023-05-15T04:58:04.340Z,11.86
2023-05-15T05:00:35.170Z,11.87
2023-05-15T05:03:05.844Z,11.89
2023-05-15T05:05:36.207Z,11.91
2023-05-15T05:08:06.657Z,11.93
2023-05-15T05:10:36.996Z,11.94
2023-05-15T05:13:07.305Z,11.95
2023-05-15T05:15:37.797Z,11.96
2023-05-15T05:18:08.863Z,11.99
2023-05-15T05:20:39.252Z,12.00
2023-05-15T05:23:09.636Z,12.02
2023-05-15T05:25:40.019Z,12.04
2023-05-15T05:28:10.343Z,12.04
2023-05-15T05:30:40.766Z,12.08
2023-05-15T05:33:11.892Z,12.11
2023-05-15T05:35:42.285Z,12.14
2023-05-15T05:38:12.620Z,12.15
2023-05-15T05:40:42.952Z,12.18
2023-05-15T05:43:13.263Z,12.20
2023-05-15T05:45:43.754Z,12.22
2023-05-15T05:48:14.365Z,12.25
2023-05-15T05:50:44.814Z,12.28
2023-05-15T05:53:15.161Z,12.31
2023-05-15T05:55:46.204Z,12.34
2023-05-15T05:58:24.925Z,12.34
2023-05-15T06:00:56.434Z,12.35
2023-05-15T06:03:27.667Z,12.36
2023-05-15T06:05:58.199Z,12.39
2023-05-15T06:08:29.761Z,12.43
2023-05-15T06:11:00.160Z,12.44
2023-05-15T06:13:30.540Z,12.47
2023-05-15T06:16:01.501Z,12.48
2023-05-15T06:18:31.872Z,12.52
2023-05-15T06:21:02.307Z,12.55
2023-05-15T06:23:32.693Z,12.58
2023-05-15T06:26:03.250Z,12.60
2023-05-15T06:28:33.599Z,12.61
2023-05-15T06:31:04.227Z,12.63
2023-05-15T06:33:34.759Z,12.68
2023-05-15T06:36:05.327Z,12.73
2023-05-15T06:38:36.175Z,12.78
2023-05-15T06:41:06.744Z,12.82
2023-05-15T06:43:38.386Z,12.89
2023-05-15T06:46:09.112Z,12.95
2023-05-15T06:48:39.888Z,12.99
2023-05-15T06:51:10.350Z,13.03
2023-05-15T06:53:41.996Z,13.08
2023-05-15T06:56:12.345Z,13.14
2023-05-15T06:58:42.782Z,13.20
2023-05-15T07:01:13.129Z,13.31
2023-05-15T07:03:44.113Z,13.41
2023-05-15T07:06:14.450Z,13.53
2023-05-15T07:08:44.758Z,13.66
2023-05-15T07:11:15.043Z,13.78
2023-05-15T07:13:45.727Z,13.93
2023-05-15T07:16:16.028Z,14.08
2023-05-15T07:18:46.497Z,14.25
2023-05-15T07:21:17.056Z,14.40
2023-05-15T07:23:47.880Z,14.53
2023-05-15T07:26:28.692Z,14.61
2023-05-15T07:29:04.082Z,14.66
2023-05-15T07:31:34.864Z,14.69
2023-05-15T07:34:05.242Z,14.69
2023-05-15T07:36:35.626Z,14.64
2023-05-15T07:39:06.094Z,14.55
2023-05-15T07:41:36.789Z,14.50
2023-05-15T07:44:07.456Z,14.49
2023-05-15T07:46:38.963Z,14.49
2023-05-15T07:49:11.833Z,14.50
2023-05-15T07:51:42.788Z,14.57
2023-05-15T07:54:13.192Z,14.61
2023-05-15T07:56:43.881Z,14.69
2023-05-15T07:59:14.255Z,14.78
2023-05-15T08:01:45.909Z,14.87
2023-05-15T08:04:17.245Z,14.94
2023-05-15T08:06:47.604Z,15.01
2023-05-15T08:09:17.939Z,15.06
2023-05-15T08:11:48.251Z,15.09
2023-05-15T08:14:18.688Z,15.11
2023-05-15T08:16:52.305Z,15.13
2023-05-15T08:19:23.884Z,15.14
2023-05-15T08:21:54.510Z,15.10
2023-05-15T08:24:25.004Z,15.00
2023-05-15T08:26:55.369Z,14.89
2023-05-15T08:29:25.779Z,14.82
2023-05-15T08:31:56.506Z,14.78
2023-05-15T08:34:26.995Z,14.74
2023-05-15T08:36:57.527Z,14.72
2023-05-15T08:39:28.036Z,14.79
2023-05-15T08:42:04.636Z,14.77
2023-05-15T08:44:37.663Z,14.69
2023-05-15T08:47:09.311Z,14.71
2023-05-15T08:49:52.360Z,14.69
2023-05-15T08:52:23.022Z,14.67
2023-05-15T08:54:53.458Z,14.73
2023-05-15T08:57:25.767Z,14.74
2023-05-15T08:59:57.907Z,14.72
2023-05-15T09:02:29.655Z,14.66
2023-05-15T09:05:00.492Z,14.68
2023-05-15T09:07:32.195Z,14.73
2023-05-15T09:10:04.630Z,14.80
2023-05-15T09:12:37.587Z,14.86
2023-05-15T09:15:17.694Z,14.91
2023-05-15T09:17:48.663Z,14.95
2023-05-15T09:20:34.055Z,14.93
2023-05-15T09:23:06.275Z,14.83
2023-05-15T09:25:39.812Z,14.81
2023-05-15T09:28:12.076Z,14.85
2023-05-15T09:30:44.295Z,14.88
2023-05-15T09:33:17.700Z,15.02
2023-05-15T09:35:48.010Z,15.25
2023-05-15T09:38:19.005Z,15.44
2023-05-15T09:40:53.703Z,15.59
2023-05-15T09:43:29.146Z,15.67
2023-05-15T09:45:59.813Z,15.73
2023-05-15T09:48:31.986Z,15.74
2023-05-15T09:51:07.743Z,15.90
2023-05-15T09:53:38.848Z,16.04
2023-05-15T09:56:10.583Z,16.21
2023-05-15T09:58:52.715Z,16.45
2023-05-15T10:01:23.632Z,16.64
2023-05-15T10:04:04.889Z,16.67
2023-05-15T10:06:42.009Z,16.61
2023-05-15T10:09:14.229Z,16.56
2023-05-15T10:11:50.954Z,16.58
2023-05-15T10:14:24.048Z,16.65
2023-05-15T10:16:56.490Z,16.70
2023-05-15T10:19:29.445Z,16.73
2023-05-15T10:22:01.640Z,16.75
2023-05-15T10:24:34.331Z,16.75
2023-05-15T10:27:06.396Z,16.83
2023-05-15T10:29:38.794Z,16.77
2023-05-15T10:32:10.449Z,16.78
2023-05-15T10:34:41.339Z,16.70
2023-05-15T10:37:13.584Z,16.57
2023-05-15T10:39:45.187Z,16.47
2023-05-15T10:42:16.099Z,16.35
2023-05-15T10:44:46.505Z,16.24
2023-05-15T10:47:16.986Z,16.12
2023-05-15T10:49:47.399Z,15.99
2023-05-15T10:52:18.358Z,15.89
2023-05-15T10:54:48.888Z,15.81
2023-05-15T10:57:19.298Z,15.85
2023-05-15T10:59:50.036Z,16.01
2023-05-15T11:02:25.400Z,16.32
2023-05-15T11:05:00.935Z,16.70
2023-05-15T11:07:31.306Z,16.95
2023-05-15T11:10:02.049Z,17.22
2023-05-15T11:12:58.671Z,17.54
2023-05-15T11:15:41.951Z,17.91
2023-05-15T11:18:12.752Z,18.22
2023-05-15T11:21:04.282Z,18.46
2023-05-15T11:23:42.263Z,18.57
2023-05-15T11:26:15.709Z,18.62
2023-05-15T11:28:47.336Z,18.71
2023-05-15T11:31:17.804Z,18.91
2023-05-15T11:33:52.924Z,18.92
2023-05-15T11:36:26.668Z,18.69
2023-05-15T11:38:57.051Z,18.50
2023-05-15T11:41:33.644Z,18.49
2023-05-15T11:44:04.003Z,18.59
2023-05-15T11:46:36.225Z,18.50
2023-05-15T11:49:06.660Z,18.26
2023-05-15T11:51:43.165Z,18.07
2023-05-15T11:54:14.600Z,17.79
2023-05-15T11:56:46.629Z,17.63
2023-05-15T11:59:17.393Z,17.61
2023-05-15T12:01:48.244Z,17.59
2023-05-15T12:04:19.778Z,17.60
2023-05-15T12:06:50.720Z,17.78
2023-05-15T12:09:22.696Z,17.92
2023-05-15T12:11:53.953Z,17.82
2023-05-15T12:14:31.216Z,17.71
2023-05-15T12:17:04.374Z,17.73
2023-05-15T12:19:36.934Z,17.78
2023-05-15T12:22:08.957Z,18.17
2023-05-15T12:24:43.922Z,18.31
2023-05-15T12:27:16.117Z,18.56
2023-05-15T12:29:46.903Z,18.93
2023-05-15T12:32:17.570Z,19.39
2023-05-15T12:34:48.657Z,19.79
2023-05-15T12:37:22.444Z,20.09
2023-05-15T12:40:02.121Z,20.26
2023-05-15T12:42:32.577Z,20.10
2023-05-15T12:45:02.924Z,20.14
2023-05-15T12:47:33.303Z,19.93
2023-05-15T12:50:03.775Z,19.56
2023-05-15T12:52:34.117Z,19.32
2023-05-15T12:55:04.738Z,19.12
2023-05-15T12:57:36.201Z,18.88
2023-05-15T13:00:11.610Z,18.69
2023-05-15T13:02:43.714Z,18.37
2023-05-15T13:05:14.909Z,18.00
2023-05-15T13:07:46.013Z,17.68
2023-05-15T13:10:16.558Z,17.48
2023-05-15T13:12:48.044Z,17.42
2023-05-15T13:15:31.436Z,17.33
2023-05-15T13:18:04.542Z,17.15
2023-05-15T13:20:38.524Z,16.97
2023-05-15T13:23:10.145Z,16.80
2023-05-15T13:25:40.594Z,16.70
2023-05-15T13:28:12.064Z,16.58
2023-05-15T13:30:43.467Z,16.47
2023-05-15T13:33:14.528Z,16.43
2023-05-15T13:35:45.292Z,16.44
2023-05-15T13:38:15.774Z,16.42
2023-05-15T13:40:46.215Z,16.26
2023-05-15T13:43:16.728Z,16.16
2023-05-15T13:45:47.118Z,16.20
2023-05-15T13:48:17.951Z,16.27
2023-05-15T13:50:48.372Z,16.18
2023-05-15T13:53:18.826Z,16.18
2023-05-15T13:55:49.638Z,16.08
2023-05-15T13:58:20.060Z,15.93
2023-05-15T14:00:51.062Z,15.81
2023-05-15T14:03:21.578Z,15.75
2023-05-15T14:05:52.962Z,15.70
2023-05-15T14:08:23.390Z,15.66
2023-05-15T14:10:53.839Z,15.70
2023-05-15T14:13:24.536Z,15.67
2023-05-15T14:15:54.951Z,15.64
2023-05-15T14:18:26.463Z,15.55
2023-05-15T14:20:57.015Z,15.44
2023-05-15T14:23:27.481Z,15.31
2023-05-15T14:25:57.867Z,15.18
2023-05-15T14:28:28.347Z,15.12
2023-05-15T14:30:58.720Z,15.09
2023-05-15T14:33:29.032Z,14.90
2023-05-15T14:36:00.894Z,14.70
2023-05-15T14:38:31.179Z,14.62
2023-05-15T14:41:01.627Z,14.59
2023-05-15T14:43:31.965Z,14.58
2023-05-15T14:46:02.477Z,14.56
2023-05-15T14:48:33.919Z,14.57
2023-05-15T14:51:04.428Z,14.57
2023-05-15T14:53:35.568Z,14.55
2023-05-15T14:56:06.449Z,14.55
2023-05-15T14:58:36.774Z,14.53
2023-05-15T15:01:07.219Z,14.49
2023-05-15T15:03:37.718Z,14.45
2023-05-15T15:06:08.861Z,14.45
2023-05-15T15:08:39.231Z,14.44
2023-05-15T15:11:09.554Z,14.53
2023-05-15T15:13:39.939Z,14.65
2023-05-15T15:16:10.458Z,14.68
2023-05-15T15:18:41.138Z,14.67
2023-05-15T15:21:12.421Z,14.67
2023-05-15T15:23:42.750Z,14.69
2023-05-15T15:26:13.146Z,14.78
2023-05-15T15:28:43.587Z,14.93
2023-05-15T15:31:14.640Z,14.98
2023-05-15T15:33:45.125Z,14.95
2023-05-15T15:36:15.463Z,14.90
2023-05-15T15:38:47.564Z,14.85
2023-05-15T15:41:18.333Z,14.84
2023-05-15T15:43:48.818Z,14.87
2023-05-15T15:46:19.313Z,14.82
2023-05-15T15:48:49.920Z,14.77
2023-05-15T15:51:20.367Z,14.74
2023-05-15T15:53:50.741Z,14.71
2023-05-15T15:56:21.300Z,14.71
2023-05-15T15:58:51.619Z,14.73
2023-05-15T16:01:23.292Z,14.75
2023-05-15T16:03:54.215Z,14.74
2023-05-15T16:06:24.618Z,14.73
2023-05-15T16:08:55.078Z,14.68
2023-05-15T16:11:25.782Z,14.71
2023-05-15T16:13:56.211Z,14.94
2023-05-15T16:16:26.668Z,15.31
2023-05-15T16:18:57.099Z,15.57
2023-05-15T16:21:27.568Z,15.63
2023-05-15T16:23:57.988Z,15.69
2023-05-15T16:26:28.369Z,15.81
2023-05-15T16:28:58.786Z,15.92
2023-05-15T16:31:29.180Z,15.95
2023-05-15T16:34:02.856Z,15.85
2023-05-15T16:36:34.146Z,15.72
2023-05-15T16:39:05.165Z,15.66
2023-05-15T16:41:35.537Z,15.55
2023-05-15T16:44:10.878Z,15.56
2023-05-15T16:46:41.414Z,15.60
2023-05-15T16:49:11.781Z,15.53
2023-05-15T16:51:42.158Z,15.44
2023-05-15T16:54:12.789Z,15.36
2023-05-15T16:56:43.192Z,15.27
2023-05-15T16:59:13.787Z,15.23
2023-05-15T17:01:44.275Z,15.14
2023-05-15T17:04:14.621Z,15.10
2023-05-15T17:06:45.036Z,15.03
2023-05-15T17:09:15.927Z,14.94
2023-05-15T17:11:46.241Z,14.87
2023-05-15T17:14:16.544Z,14.84
2023-05-15T17:16:46.967Z,14.80
2023-05-15T17:19:17.478Z,14.78
2023-05-15T17:21:47.813Z,14.75
2023-05-15T17:24:18.207Z,14.72
2023-05-15T17:26:48.558Z,14.68
2023-05-15T17:29:18.934Z,14.62
2023-05-15T17:31:49.797Z,14.56
2023-05-15T17:34:20.215Z,14.50
2023-05-15T17:36:50.565Z,14.47
2023-05-15T17:39:20.861Z,14.45
2023-05-15T17:41:51.270Z,14.42
2023-05-15T17:44:21.562Z,14.42
2023-05-15T17:46:51.986Z,14.42
2023-05-15T17:49:22.497Z,14.39
2023-05-15T17:51:53.024Z,14.38
2023-05-15T17:54:23.399Z,14.36
2023-05-15T17:56:53.759Z,14.34
2023-05-15T17:59:24.085Z,14.32
2023-05-15T18:01:54.849Z,14.28
2023-05-15T18:04:25.387Z,14.25
2023-05-15T18:06:55.856Z,14.19
2023-05-15T18:09:26.559Z,14.16
2023-05-15T18:11:56.895Z,14.08
2023-05-15T18:14:27.408Z,14.05
2023-05-15T18:16:58.275Z,14.03
2023-05-15T18:19:28.613Z,14.02
2023-05-15T18:22:02.728Z,14.01
2023-05-15T18:24:35.656Z,13.97
2023-05-15T18:27:06.778Z,13.90
2023-05-15T18:29:37.150Z,13.79
2023-05-15T18:32:08.285Z,13.72
2023-05-15T18:34:38.703Z,13.65
2023-05-15T18:37:09.232Z,13.61
2023-05-15T18:39:42.958Z,13.56
2023-05-15T18:42:13.312Z,13.51
2023-05-15T18:44:43.734Z,13.44
2023-05-15T18:47:14.227Z,13.36
2023-05-15T18:49:44.748Z,13.28
2023-05-15T18:52:15.348Z,13.21
2023-05-15T18:54:46.150Z,13.17
2023-05-15T18:57:16.523Z,13.11
2023-05-15T18:59:47.893Z,13.05
2023-05-15T19:02:18.328Z,13.00
2023-05-15T19:04:48.873Z,12.95
2023-05-15T19:07:19.463Z,12.91
2023-05-15T19:09:49.791Z,12.85
2023-05-15T19:12:20.046Z,12.80
2023-05-15T19:14:50.345Z,12.73
2023-05-15T19:17:20.811Z,12.70
2023-05-15T19:19:52.073Z,12.65
2023-05-15T19:22:22.428Z,12.62
2023-05-15T19:24:53.080Z,12.59
2023-05-15T19:27:23.473Z,12.55
2023-05-15T19:29:53.848Z,12.52
2023-05-15T19:32:24.353Z,12.49
2023-05-15T19:34:54.911Z,12.46
2023-05-15T19:37:25.443Z,12.44
2023-05-15T19:39:56.234Z,12.42
2023-05-15T19:42:27.031Z,12.38
2023-05-15T19:44:57.522Z,12.38
2023-05-15T19:47:28.089Z,12.37
2023-05-15T19:49:58.704Z,12.38
2023-05-15T19:52:29.097Z,12.39
2023-05-15T19:54:59.497Z,12.40
2023-05-15T19:57:29.870Z,12.39
2023-05-15T20:00:00.470Z,12.37
2023-05-15T20:02:30.911Z,12.32
2023-05-15T20:05:01.843Z,12.27
2023-05-15T20:07:32.190Z,12.20
2023-05-15T20:10:02.611Z,12.13
2023-05-15T20:12:33.129Z,12.07
2023-05-15T20:15:03.608Z,12.00
2023-05-15T20:17:34.213Z,11.93
2023-05-15T20:20:08.308Z,11.86
2023-05-15T20:22:39.018Z,11.83
2023-05-15T20:25:10.498Z,11.82
2023-05-15T20:27:40.907Z,11.80
2023-05-15T20:30:13.059Z,11.77
2023-05-15T20:32:43.528Z,11.73
2023-05-15T20:35:14.020Z,11.70
2023-05-15T20:37:45.779Z,11.67
2023-05-15T20:40:16.636Z,11.64
2023-05-15T20:42:47.057Z,11.60
2023-05-15T20:45:17.669Z,11.54
2023-05-15T20:47:48.146Z,11.47
2023-05-15T20:50:18.749Z,11.41
2023-05-15T20:52:49.080Z,11.38
2023-05-15T20:55:21.545Z,11.36
2023-05-15T20:57:52.052Z,11.34
2023-05-15T21:00:22.439Z,11.33
2023-05-15T21:02:53.246Z,11.30
2023-05-15T21:05:24.380Z,11.26
2023-05-15T21:07:57.209Z,11.23
2023-05-15T21:10:27.902Z,11.18
2023-05-15T21:12:59.788Z,11.14
2023-05-15T21:15:30.128Z,11.08
2023-05-15T21:18:00.524Z,11.04
2023-05-15T21:20:31.966Z,10.98
2023-05-15T21:23:04.277Z,10.91
2023-05-15T21:25:35.498Z,10.88
2023-05-15T21:28:07.683Z,10.85
2023-05-15T21:30:38.051Z,10.84
2023-05-15T21:33:08.550Z,10.82
2023-05-15T21:35:39.879Z,10.81
2023-05-15T21:38:10.165Z,10.77
2023-05-15T21:40:42.206Z,10.71
2023-05-15T21:43:12.936Z,10.66
2023-05-15T21:45:43.272Z,10.66
2023-05-15T21:48:13.757Z,10.64
2023-05-15T21:50:44.080Z,10.62
2023-05-15T21:53:14.467Z,10.60
2023-05-15T21:55:44.807Z,10.55
2023-05-15T21:58:15.337Z,10.49
2023-05-15T22:00:46.020Z,10.44
2023-05-15T22:03:16.534Z,10.38
2023-05-15T22:05:47.756Z,10.33
2023-05-15T22:08:18.073Z,10.30
2023-05-15T22:10:48.397Z,10.27
2023-05-15T22:13:18.729Z,10.25
2023-05-15T22:15:49.237Z,10.24
2023-05-15T22:18:19.658Z,10.21
2023-05-15T22:20:52.355Z,10.16
2023-05-15T22:23:22.660Z,10.10
2023-05-15T22:25:53.034Z,10.04
2023-05-15T22:28:23.394Z,10.01
2023-05-15T22:30:53.809Z,9.99
2023-05-15T22:33:24.621Z,9.95
2023-05-15T22:35:55.173Z,9.92
2023-05-15T22:38:25.576Z,9.88
2023-05-15T22:40:56.390Z,9.85
2023-05-15T22:43:26.757Z,9.82
2023-05-15T22:45:57.211Z,9.80
2023-05-15T22:48:27.601Z,9.79
2023-05-15T22:50:57.988Z,9.79
2023-05-15T22:53:28.352Z,9.78
2023-05-15T22:55:58.792Z,9.76
2023-05-15T22:58:29.143Z,9.73
2023-05-15T23:00:59.858Z,9.70
2023-05-15T23:03:30.277Z,9.66
2023-05-15T23:06:00.652Z,9.61
2023-05-15T23:08:31.092Z,9.59
2023-05-15T23:11:01.452Z,9.57
2023-05-15T23:13:32.004Z,9.58
2023-05-15T23:16:02.499Z,9.60
2023-05-15T23:18:32.945Z,9.62
2023-05-15T23:21:04.799Z,9.62
2023-05-15T23:23:35.392Z,9.64
2023-05-15T23:26:06.001Z,9.63
2023-05-15T23:28:36.290Z,9.60
2023-05-15T23:31:06.801Z,9.51
2023-05-15T23:33:37.540Z,9.39
2023-05-15T23:36:08.767Z,9.35
2023-05-15T23:38:39.881Z,9.37
2023-05-15T23:41:10.257Z,9.38
2023-05-15T23:43:40.567Z,9.40
2023-05-15T23:46:10.943Z,9.40
2023-05-15T23:48:41.447Z,9.41
2023-05-15T23:51:12.074Z,9.41
2023-05-15T23:53:42.726Z,9.40
2023-05-15T23:56:13.060Z,9.38
2023-05-15T23:58:43.333Z,9.34
